sensor_id;sensor_type;location;lat;lon;timestamp;P1;durP1;ratioP1;P2;durP2;ratioP2
10082;SDS011;5080;48.528;8.078;2023-05-07T00:00:06;0.88;;;0.88;;
10082;SDS011;5080;48.528;8.078;2023-05-07T00:02:35;0.70;;;0.70;;
10082;SDS011;5080;48.528;8.078;2023-05-07T00:05:02;1.13;;;0.93;;
10082;SDS011;5080;48.528;8.078;2023-05-07T00:07:29;0.77;;;0.77;;
10082;SDS011;5080;48.528;8.078;2023-05-07T00:09:56;0.63;;;0.63;;
10082;SDS011;5080;48.528;8.078;2023-05-07T00:12:23;0.82;;;0.82;;
10082;SDS011;5080;48.528;8.078;2023-05-07T00:14:50;0.95;;;0.70;;
10082;SDS011;5080;48.528;8.078;2023-05-07T00:17:17;0.90;;;0.90;;
10082;SDS011;5080;48.528;8.078;2023-05-07T00:19:45;1.15;;;0.70;;
10082;SDS011;5080;48.528;8.078;2023-05-07T00:22:12;0.90;;;0.90;;
10082;SDS011;5080;48.528;8.078;2023-05-07T00:24:39;0.90;;;0.90;;
10082;SDS011;5080;48.528;8.078;2023-05-07T00:27:06;0.60;;;0.60;;
10082;SDS011;5080;48.528;8.078;2023-05-07T00:29:33;0.80;;;0.80;;
10082;SDS011;5080;48.528;8.078;2023-05-07T00:31:59;0.90;;;0.90;;
10082;SDS011;5080;48.528;8.078;2023-05-07T00:34:26;1.00;;;0.90;;
10082;SDS011;5080;48.528;8.078;2023-05-07T00:36:54;0.77;;;0.77;;
10082;SDS011;5080;48.528;8.078;2023-05-07T00:39:21;1.00;;;1.00;;
10082;SDS011;5080;48.528;8.078;2023-05-07T00:41:48;0.88;;;0.88;;
10082;SDS011;5080;48.528;8.078;2023-05-07T00:44:16;1.08;;;0.70;;
10082;SDS011;5080;48.528;8.078;2023-05-07T00:46:43;0.85;;;0.85;;
10082;SDS011;5080;48.528;8.078;2023-05-07T00:49:13;1.35;;;0.90;;
10082;SDS011;5080;48.528;8.078;2023-05-07T00:51:40;0.80;;;0.80;;
10082;SDS011;5080;48.528;8.078;2023-05-07T00:54:09;0.70;;;0.70;;
10082;SDS011;5080;48.528;8.078;2023-05-07T00:56:36;0.73;;;0.73;;
10082;SDS011;5080;48.528;8.078;2023-05-07T00:59:04;0.80;;;0.80;;
10082;SDS011;5080;48.528;8.078;2023-05-07T01:01:32;0.85;;;0.85;;
10082;SDS011;5080;48.528;8.078;2023-05-07T01:03:59;0.77;;;0.77;;
10082;SDS011;5080;48.528;8.078;2023-05-07T01:06:26;0.60;;;0.60;;
10082;SDS011;5080;48.528;8.078;2023-05-07T01:08:55;0.70;;;0.70;;
10082;SDS011;5080;48.528;8.078;2023-05-07T01:11:23;0.80;;;0.80;;
10082;SDS011;5080;48.528;8.078;2023-05-07T01:13:51;0.80;;;0.80;;
10082;SDS011;5080;48.528;8.078;2023-05-07T01:16:18;0.50;;;0.50;;
10082;SDS011;5080;48.528;8.078;2023-05-07T01:18:46;0.70;;;0.70;;
10082;SDS011;5080;48.528;8.078;2023-05-07T01:21:14;0.73;;;0.70;;
10082;SDS011;5080;48.528;8.078;2023-05-07T01:23:45;0.90;;;0.90;;
10082;SDS011;5080;48.528;8.078;2023-05-07T01:26:13;0.65;;;0.65;;
10082;SDS011;5080;48.528;8.078;2023-05-07T01:28:40;0.60;;;0.60;;
10082;SDS011;5080;48.528;8.078;2023-05-07T01:31:06;0.90;;;0.90;;
10082;SDS011;5080;48.528;8.078;2023-05-07T01:33:35;0.60;;;0.60;;
10082;SDS011;5080;48.528;8.078;2023-05-07T01:36:04;0.80;;;0.80;;
10082;SDS011;5080;48.528;8.078;2023-05-07T01:38:33;0.70;;;0.70;;
10082;SDS011;5080;48.528;8.078;2023-05-07T01:41:02;0.80;;;0.80;;
10082;SDS011;5080;48.528;8.078;2023-05-07T01:43:29;0.80;;;0.80;;
10082;SDS011;5080;48.528;8.078;2023-05-07T01:45:57;0.88;;;0.88;;
10082;SDS011;5080;48.528;8.078;2023-05-07T01:48:24;0.80;;;0.80;;
10082;SDS011;5080;48.528;8.078;2023-05-07T01:50:52;0.80;;;0.80;;
10082;SDS011;5080;48.528;8.078;2023-05-07T01:53:19;1.10;;;1.00;;
10082;SDS011;5080;48.528;8.078;2023-05-07T01:55:46;1.02;;;1.00;;
10082;SDS011;5080;48.528;8.078;2023-05-07T01:58:14;0.70;;;0.70;;
10082;SDS011;5080;48.528;8.078;2023-05-07T02:00:41;0.80;;;0.80;;
10082;SDS011;5080;48.528;8.078;2023-05-07T02:03:08;1.35;;;0.88;;
10082;SDS011;5080;48.528;8.078;2023-05-07T02:05:34;1.57;;;0.70;;
10082;SDS011;5080;48.528;8.078;2023-05-07T02:08:01;0.60;;;0.60;;
10082;SDS011;5080;48.528;8.078;2023-05-07T02:10:28;1.00;;;1.00;;
10082;SDS011;5080;48.528;8.078;2023-05-07T02:12:55;0.60;;;0.60;;
10082;SDS011;5080;48.528;8.078;2023-05-07T02:15:23;0.80;;;0.80;;
10082;SDS011;5080;48.528;8.078;2023-05-07T02:18:00;0.63;;;0.63;;
10082;SDS011;5080;48.528;8.078;2023-05-07T02:20:28;0.90;;;0.90;;
10082;SDS011;5080;48.528;8.078;2023-05-07T02:22:55;0.60;;;0.60;;
10082;SDS011;5080;48.528;8.078;2023-05-07T02:25:22;0.80;;;0.70;;
10082;SDS011;5080;48.528;8.078;2023-05-07T02:27:49;0.80;;;0.80;;
10082;SDS011;5080;48.528;8.078;2023-05-07T02:30:16;0.80;;;0.80;;
10082;SDS011;5080;48.528;8.078;2023-05-07T02:32:44;0.70;;;0.70;;
10082;SDS011;5080;48.528;8.078;2023-05-07T02:35:11;0.53;;;0.53;;
10082;SDS011;5080;48.528;8.078;2023-05-07T02:37:38;0.90;;;0.90;;
10082;SDS011;5080;48.528;8.078;2023-05-07T02:40:05;0.75;;;0.75;;
10082;SDS011;5080;48.528;8.078;2023-05-07T02:42:32;0.90;;;0.90;;
10082;SDS011;5080;48.528;8.078;2023-05-07T02:44:59;0.70;;;0.70;;
10082;SDS011;5080;48.528;8.078;2023-05-07T02:47:26;0.98;;;0.98;;
10082;SDS011;5080;48.528;8.078;2023-05-07T02:49:55;0.75;;;0.75;;
10082;SDS011;5080;48.528;8.078;2023-05-07T02:52:21;2.60;;;0.85;;
10082;SDS011;5080;48.528;8.078;2023-05-07T02:54:48;0.73;;;0.73;;
10082;SDS011;5080;48.528;8.078;2023-05-07T02:57:15;1.02;;;0.95;;
10082;SDS011;5080;48.528;8.078;2023-05-07T02:59:42;0.70;;;0.70;;
10082;SDS011;5080;48.528;8.078;2023-05-07T03:02:09;0.70;;;0.70;;
10082;SDS011;5080;48.528;8.078;2023-05-07T03:04:35;0.70;;;0.70;;
10082;SDS011;5080;48.528;8.078;2023-05-07T03:07:04;0.73;;;0.73;;
10082;SDS011;5080;48.528;8.078;2023-05-07T03:09:30;0.68;;;0.68;;
10082;SDS011;5080;48.528;8.078;2023-05-07T03:11:57;0.63;;;0.63;;
10082;SDS011;5080;48.528;8.078;2023-05-07T03:14:24;0.80;;;0.80;;
10082;SDS011;5080;48.528;8.078;2023-05-07T03:16:51;0.90;;;0.90;;
10082;SDS011;5080;48.528;8.078;2023-05-07T03:19:18;0.80;;;0.80;;
10082;SDS011;5080;48.528;8.078;2023-05-07T03:21:44;0.77;;;0.77;;
10082;SDS011;5080;48.528;8.078;2023-05-07T03:24:13;0.88;;;0.88;;
10082;SDS011;5080;48.528;8.078;2023-05-07T03:26:39;0.80;;;0.80;;
10082;SDS011;5080;48.528;8.078;2023-05-07T03:29:06;0.70;;;0.70;;
10082;SDS011;5080;48.528;8.078;2023-05-07T03:31:33;0.90;;;0.90;;
10082;SDS011;5080;48.528;8.078;2023-05-07T03:34:00;1.20;;;1.00;;
10082;SDS011;5080;48.528;8.078;2023-05-07T03:36:26;0.73;;;0.73;;
10082;SDS011;5080;48.528;8.078;2023-05-07T03:38:53;0.90;;;0.90;;
10082;SDS011;5080;48.528;8.078;2023-05-07T03:41:21;0.80;;;0.80;;
10082;SDS011;5080;48.528;8.078;2023-05-07T03:43:48;0.80;;;0.80;;
10082;SDS011;5080;48.528;8.078;2023-05-07T03:46:15;0.80;;;0.80;;
10082;SDS011;5080;48.528;8.078;2023-05-07T03:48:42;0.80;;;0.80;;
10082;SDS011;5080;48.528;8.078;2023-05-07T03:51:08;0.80;;;0.80;;
10082;SDS011;5080;48.528;8.078;2023-05-07T03:53:35;1.03;;;0.93;;
10082;SDS011;5080;48.528;8.078;2023-05-07T03:56:02;0.82;;;0.82;;
10082;SDS011;5080;48.528;8.078;2023-05-07T03:58:31;0.80;;;0.80;;
10082;SDS011;5080;48.528;8.078;2023-05-07T04:00:58;0.73;;;0.73;;
10082;SDS011;5080;48.528;8.078;2023-05-07T04:03:24;0.68;;;0.68;;
10082;SDS011;5080;48.528;8.078;2023-05-07T04:05:51;0.80;;;0.80;;
10082;SDS011;5080;48.528;8.078;2023-05-07T04:08:18;0.60;;;0.60;;
10082;SDS011;5080;48.528;8.078;2023-05-07T04:10:45;0.80;;;0.80;;
10082;SDS011;5080;48.528;8.078;2023-05-07T04:13:12;0.88;;;0.88;;
10082;SDS011;5080;48.528;8.078;2023-05-07T04:15:40;0.70;;;0.70;;
10082;SDS011;5080;48.528;8.078;2023-05-07T04:18:07;0.80;;;0.80;;
10082;SDS011;5080;48.528;8.078;2023-05-07T04:20:33;1.75;;;1.13;;
10082;SDS011;5080;48.528;8.078;2023-05-07T04:23:01;1.00;;;1.00;;
10082;SDS011;5080;48.528;8.078;2023-05-07T04:25:28;1.07;;;1.07;;
10082;SDS011;5080;48.528;8.078;2023-05-07T04:27:55;1.10;;;1.00;;
10082;SDS011;5080;48.528;8.078;2023-05-07T04:30:22;0.80;;;0.80;;
10082;SDS011;5080;48.528;8.078;2023-05-07T04:32:50;0.80;;;0.80;;
10082;SDS011;5080;48.528;8.078;2023-05-07T04:35:18;0.70;;;0.70;;
10082;SDS011;5080;48.528;8.078;2023-05-07T04:37:45;0.90;;;0.90;;
10082;SDS011;5080;48.528;8.078;2023-05-07T04:40:12;0.70;;;0.70;;
10082;SDS011;5080;48.528;8.078;2023-05-07T04:42:39;0.93;;;0.93;;
10082;SDS011;5080;48.528;8.078;2023-05-07T04:45:06;1.57;;;0.90;;
10082;SDS011;5080;48.528;8.078;2023-05-07T04:47:33;1.00;;;1.00;;
10082;SDS011;5080;48.528;8.078;2023-05-07T04:50:02;0.80;;;0.80;;
10082;SDS011;5080;48.528;8.078;2023-05-07T04:52:29;1.00;;;1.00;;
10082;SDS011;5080;48.528;8.078;2023-05-07T04:54:56;0.80;;;0.80;;
10082;SDS011;5080;48.528;8.078;2023-05-07T04:57:25;0.80;;;0.80;;
10082;SDS011;5080;48.528;8.078;2023-05-07T04:59:52;0.70;;;0.70;;
10082;SDS011;5080;48.528;8.078;2023-05-07T05:02:19;0.90;;;0.90;;
10082;SDS011;5080;48.528;8.078;2023-05-07T05:04:45;0.80;;;0.80;;
10082;SDS011;5080;48.528;8.078;2023-05-07T05:07:13;0.93;;;0.93;;
10082;SDS011;5080;48.528;8.078;2023-05-07T05:09:40;0.90;;;0.90;;
10082;SDS011;5080;48.528;8.078;2023-05-07T05:12:07;0.70;;;0.70;;
10082;SDS011;5080;48.528;8.078;2023-05-07T05:14:34;0.80;;;0.80;;
10082;SDS011;5080;48.528;8.078;2023-05-07T05:17:01;0.80;;;0.80;;
10082;SDS011;5080;48.528;8.078;2023-05-07T05:19:27;0.70;;;0.70;;
10082;SDS011;5080;48.528;8.078;2023-05-07T05:21:54;0.77;;;0.77;;
10082;SDS011;5080;48.528;8.078;2023-05-07T05:24:22;0.70;;;0.70;;
10082;SDS011;5080;48.528;8.078;2023-05-07T05:26:49;0.80;;;0.80;;
10082;SDS011;5080;48.528;8.078;2023-05-07T05:29:18;1.00;;;1.00;;
10082;SDS011;5080;48.528;8.078;2023-05-07T05:31:45;0.70;;;0.70;;
10082;SDS011;5080;48.528;8.078;2023-05-07T05:34:12;1.10;;;1.10;;
10082;SDS011;5080;48.528;8.078;2023-05-07T05:36:39;0.95;;;0.90;;
10082;SDS011;5080;48.528;8.078;2023-05-07T05:39:06;1.00;;;1.00;;
10082;SDS011;5080;48.528;8.078;2023-05-07T05:41:35;0.97;;;0.97;;
10082;SDS011;5080;48.528;8.078;2023-05-07T05:44:01;1.15;;;1.05;;
10082;SDS011;5080;48.528;8.078;2023-05-07T05:46:29;0.90;;;0.90;;
10082;SDS011;5080;48.528;8.078;2023-05-07T05:48:56;0.80;;;0.80;;
10082;SDS011;5080;48.528;8.078;2023-05-07T05:51:23;0.95;;;0.90;;
10082;SDS011;5080;48.528;8.078;2023-05-07T05:53:50;0.90;;;0.90;;
10082;SDS011;5080;48.528;8.078;2023-05-07T05:56:16;0.70;;;0.70;;
10082;SDS011;5080;48.528;8.078;2023-05-07T05:58:45;0.80;;;0.80;;
10082;SDS011;5080;48.528;8.078;2023-05-07T06:01:12;0.80;;;0.80;;
10082;SDS011;5080;48.528;8.078;2023-05-07T06:03:39;0.70;;;0.70;;
10082;SDS011;5080;48.528;8.078;2023-05-07T06:06:06;0.80;;;0.73;;
10082;SDS011;5080;48.528;8.078;2023-05-07T06:08:33;0.95;;;0.95;;
10082;SDS011;5080;48.528;8.078;2023-05-07T06:11:00;0.80;;;0.80;;
10082;SDS011;5080;48.528;8.078;2023-05-07T06:13:28;0.80;;;0.80;;
10082;SDS011;5080;48.528;8.078;2023-05-07T06:15:56;0.80;;;0.80;;
10082;SDS011;5080;48.528;8.078;2023-05-07T06:18:24;1.30;;;0.90;;
10082;SDS011;5080;48.528;8.078;2023-05-07T06:20:51;1.00;;;1.00;;
10082;SDS011;5080;48.528;8.078;2023-05-07T06:23:18;1.00;;;1.00;;
10082;SDS011;5080;48.528;8.078;2023-05-07T06:25:48;0.90;;;0.90;;
10082;SDS011;5080;48.528;8.078;2023-05-07T06:28:15;1.20;;;1.10;;
10082;SDS011;5080;48.528;8.078;2023-05-07T06:30:42;1.20;;;1.10;;
10082;SDS011;5080;48.528;8.078;2023-05-07T06:33:10;0.90;;;0.90;;
10082;SDS011;5080;48.528;8.078;2023-05-07T06:35:37;1.00;;;1.00;;
10082;SDS011;5080;48.528;8.078;2023-05-07T06:38:04;1.10;;;1.10;;
10082;SDS011;5080;48.528;8.078;2023-05-07T06:40:31;1.10;;;1.10;;
10082;SDS011;5080;48.528;8.078;2023-05-07T06:42:58;1.20;;;1.20;;
10082;SDS011;5080;48.528;8.078;2023-05-07T06:45:24;1.10;;;1.10;;
10082;SDS011;5080;48.528;8.078;2023-05-07T06:47:51;1.08;;;1.08;;
10082;SDS011;5080;48.528;8.078;2023-05-07T06:50:20;1.00;;;1.00;;
10082;SDS011;5080;48.528;8.078;2023-05-07T06:52:46;1.20;;;1.20;;
10082;SDS011;5080;48.528;8.078;2023-05-07T06:55:13;1.50;;;1.40;;
10082;SDS011;5080;48.528;8.078;2023-05-07T06:57:40;1.25;;;1.25;;
10082;SDS011;5080;48.528;8.078;2023-05-07T07:00:07;1.25;;;1.25;;
10082;SDS011;5080;48.528;8.078;2023-05-07T07:02:36;1.40;;;1.40;;
10082;SDS011;5080;48.528;8.078;2023-05-07T07:05:03;1.40;;;1.30;;
10082;SDS011;5080;48.528;8.078;2023-05-07T07:07:31;1.52;;;1.42;;
10082;SDS011;5080;48.528;8.078;2023-05-07T07:09:58;1.30;;;1.20;;
10082;SDS011;5080;48.528;8.078;2023-05-07T07:12:25;1.17;;;1.17;;
10082;SDS011;5080;48.528;8.078;2023-05-07T07:14:52;1.33;;;1.33;;
10082;SDS011;5080;48.528;8.078;2023-05-07T07:17:18;1.30;;;1.30;;
10082;SDS011;5080;48.528;8.078;2023-05-07T07:19:45;1.40;;;1.30;;
10082;SDS011;5080;48.528;8.078;2023-05-07T07:22:12;1.10;;;1.10;;
10082;SDS011;5080;48.528;8.078;2023-05-07T07:24:40;1.20;;;1.20;;
10082;SDS011;5080;48.528;8.078;2023-05-07T07:27:07;1.67;;;1.58;;
10082;SDS011;5080;48.528;8.078;2023-05-07T07:29:34;1.67;;;1.58;;
10082;SDS011;5080;48.528;8.078;2023-05-07T07:32:01;1.58;;;1.20;;
10082;SDS011;5080;48.528;8.078;2023-05-07T07:34:27;1.20;;;1.20;;
10082;SDS011;5080;48.528;8.078;2023-05-07T07:36:55;1.73;;;1.30;;
10082;SDS011;5080;48.528;8.078;2023-05-07T07:39:22;1.10;;;1.10;;
10082;SDS011;5080;48.528;8.078;2023-05-07T07:41:50;1.10;;;1.10;;
10082;SDS011;5080;48.528;8.078;2023-05-07T07:44:17;1.00;;;1.00;;
10082;SDS011;5080;48.528;8.078;2023-05-07T07:46:44;1.30;;;1.30;;
10082;SDS011;5080;48.528;8.078;2023-05-07T07:49:10;1.00;;;1.00;;
10082;SDS011;5080;48.528;8.078;2023-05-07T07:51:37;1.08;;;1.08;;
10082;SDS011;5080;48.528;8.078;2023-05-07T07:54:04;0.90;;;0.90;;
10082;SDS011;5080;48.528;8.078;2023-05-07T07:56:31;1.27;;;1.23;;
10082;SDS011;5080;48.528;8.078;2023-05-07T07:59:00;0.90;;;0.90;;
10082;SDS011;5080;48.528;8.078;2023-05-07T08:01:29;1.00;;;1.00;;
10082;SDS011;5080;48.528;8.078;2023-05-07T08:03:56;1.52;;;1.10;;
10082;SDS011;5080;48.528;8.078;2023-05-07T08:06:23;1.02;;;0.93;;
10082;SDS011;5080;48.528;8.078;2023-05-07T08:08:51;0.70;;;0.70;;
10082;SDS011;5080;48.528;8.078;2023-05-07T08:11:18;0.80;;;0.80;;
10082;SDS011;5080;48.528;8.078;2023-05-07T08:13:45;0.90;;;0.90;;
10082;SDS011;5080;48.528;8.078;2023-05-07T08:16:14;0.73;;;0.73;;
10082;SDS011;5080;48.528;8.078;2023-05-07T08:18:40;0.80;;;0.80;;
10082;SDS011;5080;48.528;8.078;2023-05-07T08:21:07;1.10;;;1.00;;
10082;SDS011;5080;48.528;8.078;2023-05-07T08:23:34;0.77;;;0.77;;
10082;SDS011;5080;48.528;8.078;2023-05-07T08:26:01;0.77;;;0.77;;
10082;SDS011;5080;48.528;8.078;2023-05-07T08:28:28;1.25;;;1.15;;
10082;SDS011;5080;48.528;8.078;2023-05-07T08:30:55;1.15;;;1.05;;
10082;SDS011;5080;48.528;8.078;2023-05-07T08:33:26;0.90;;;0.90;;
10082;SDS011;5080;48.528;8.078;2023-05-07T08:35:53;0.80;;;0.80;;
10082;SDS011;5080;48.528;8.078;2023-05-07T08:38:19;1.00;;;1.00;;
10082;SDS011;5080;48.528;8.078;2023-05-07T08:40:46;1.75;;;1.00;;
10082;SDS011;5080;48.528;8.078;2023-05-07T08:43:13;1.00;;;1.00;;
10082;SDS011;5080;48.528;8.078;2023-05-07T08:45:41;0.90;;;0.90;;
10082;SDS011;5080;48.528;8.078;2023-05-07T08:48:08;0.82;;;0.82;;
10082;SDS011;5080;48.528;8.078;2023-05-07T08:50:41;0.90;;;0.90;;
10082;SDS011;5080;48.528;8.078;2023-05-07T08:53:08;0.80;;;0.80;;
10082;SDS011;5080;48.528;8.078;2023-05-07T08:55:35;0.90;;;0.90;;
10082;SDS011;5080;48.528;8.078;2023-05-07T08:58:02;0.90;;;0.90;;
10082;SDS011;5080;48.528;8.078;2023-05-07T09:00:29;1.05;;;0.98;;
10082;SDS011;5080;48.528;8.078;2023-05-07T09:02:56;0.90;;;0.90;;
10082;SDS011;5080;48.528;8.078;2023-05-07T09:05:23;0.90;;;0.90;;
10082;SDS011;5080;48.528;8.078;2023-05-07T09:07:51;0.85;;;0.85;;
10082;SDS011;5080;48.528;8.078;2023-05-07T09:10:18;1.02;;;1.02;;
10082;SDS011;5080;48.528;8.078;2023-05-07T09:12:46;0.98;;;0.98;;
10082;SDS011;5080;48.528;8.078;2023-05-07T09:15:13;1.13;;;1.13;;
10082;SDS011;5080;48.528;8.078;2023-05-07T09:17:40;0.80;;;0.80;;
10082;SDS011;5080;48.528;8.078;2023-05-07T09:20:08;0.90;;;0.90;;
10082;SDS011;5080;48.528;8.078;2023-05-07T09:22:36;1.15;;;1.10;;
10082;SDS011;5080;48.528;8.078;2023-05-07T09:25:05;1.10;;;1.10;;
10082;SDS011;5080;48.528;8.078;2023-05-07T09:27:33;1.35;;;1.25;;
10082;SDS011;5080;48.528;8.078;2023-05-07T09:30:02;1.20;;;1.20;;
10082;SDS011;5080;48.528;8.078;2023-05-07T09:32:33;1.13;;;1.13;;
10082;SDS011;5080;48.528;8.078;2023-05-07T09:35:00;0.90;;;0.90;;
10082;SDS011;5080;48.528;8.078;2023-05-07T09:37:28;1.20;;;1.20;;
10082;SDS011;5080;48.528;8.078;2023-05-07T09:39:57;1.20;;;1.20;;
10082;SDS011;5080;48.528;8.078;2023-05-07T09:42:26;1.10;;;1.10;;
10082;SDS011;5080;48.528;8.078;2023-05-07T09:44:52;1.08;;;1.08;;
10082;SDS011;5080;48.528;8.078;2023-05-07T09:47:20;1.40;;;1.30;;
10082;SDS011;5080;48.528;8.078;2023-05-07T09:49:48;1.27;;;1.27;;
10082;SDS011;5080;48.528;8.078;2023-05-07T09:52:20;1.38;;;1.27;;
10082;SDS011;5080;48.528;8.078;2023-05-07T09:54:47;1.30;;;1.30;;
10082;SDS011;5080;48.528;8.078;2023-05-07T09:57:16;1.17;;;1.17;;
10082;SDS011;5080;48.528;8.078;2023-05-07T09:59:46;1.05;;;1.05;;
10082;SDS011;5080;48.528;8.078;2023-05-07T10:02:15;1.20;;;1.20;;
10082;SDS011;5080;48.528;8.078;2023-05-07T10:04:44;1.10;;;1.10;;
10082;SDS011;5080;48.528;8.078;2023-05-07T10:07:11;1.25;;;1.25;;
10082;SDS011;5080;48.528;8.078;2023-05-07T10:09:40;1.13;;;1.13;;
10082;SDS011;5080;48.528;8.078;2023-05-07T10:12:08;1.00;;;1.00;;
10082;SDS011;5080;48.528;8.078;2023-05-07T10:14:35;1.17;;;1.17;;
10082;SDS011;5080;48.528;8.078;2023-05-07T10:17:04;1.20;;;1.20;;
10082;SDS011;5080;48.528;8.078;2023-05-07T10:19:33;1.05;;;1.00;;
10082;SDS011;5080;48.528;8.078;2023-05-07T10:22:02;1.10;;;1.10;;
10082;SDS011;5080;48.528;8.078;2023-05-07T10:24:32;1.10;;;1.10;;
10082;SDS011;5080;48.528;8.078;2023-05-07T10:27:00;1.00;;;1.00;;
10082;SDS011;5080;48.528;8.078;2023-05-07T10:29:32;1.10;;;1.10;;
10082;SDS011;5080;48.528;8.078;2023-05-07T10:32:14;1.20;;;1.10;;
10082;SDS011;5080;48.528;8.078;2023-05-07T10:34:53;1.23;;;1.23;;
10082;SDS011;5080;48.528;8.078;2023-05-07T10:37:22;1.15;;;1.15;;
10082;SDS011;5080;48.528;8.078;2023-05-07T10:39:50;1.15;;;1.15;;
10082;SDS011;5080;48.528;8.078;2023-05-07T10:42:18;1.20;;;1.10;;
10082;SDS011;5080;48.528;8.078;2023-05-07T10:44:45;1.02;;;1.02;;
10082;SDS011;5080;48.528;8.078;2023-05-07T10:47:15;1.17;;;1.17;;
10082;SDS011;5080;48.528;8.078;2023-05-07T10:55:49;0.98;;;0.98;;
10082;SDS011;5080;48.528;8.078;2023-05-07T10:58:23;1.15;;;1.10;;
10082;SDS011;5080;48.528;8.078;2023-05-07T11:00:55;1.08;;;1.08;;
10082;SDS011;5080;48.528;8.078;2023-05-07T11:03:24;1.00;;;1.00;;
10082;SDS011;5080;48.528;8.078;2023-05-07T11:06:08;1.13;;;1.00;;
10082;SDS011;5080;48.528;8.078;2023-05-07T11:08:52;0.88;;;0.88;;
10082;SDS011;5080;48.528;8.078;2023-05-07T11:11:19;0.80;;;0.80;;
10082;SDS011;5080;48.528;8.078;2023-05-07T11:14:07;0.90;;;0.90;;
10082;SDS011;5080;48.528;8.078;2023-05-07T11:16:34;1.00;;;1.00;;
10082;SDS011;5080;48.528;8.078;2023-05-07T11:19:04;0.90;;;0.90;;
10082;SDS011;5080;48.528;8.078;2023-05-07T11:21:31;0.88;;;0.88;;
10082;SDS011;5080;48.528;8.078;2023-05-07T11:23:59;0.90;;;0.90;;
10082;SDS011;5080;48.528;8.078;2023-05-07T11:26:27;1.10;;;1.10;;
10082;SDS011;5080;48.528;8.078;2023-05-07T11:28:56;0.82;;;0.82;;
10082;SDS011;5080;48.528;8.078;2023-05-07T11:31:25;0.90;;;0.90;;
10082;SDS011;5080;48.528;8.078;2023-05-07T11:33:54;0.90;;;0.90;;
10082;SDS011;5080;48.528;8.078;2023-05-07T11:36:23;1.10;;;1.10;;
10082;SDS011;5080;48.528;8.078;2023-05-07T11:38:51;0.90;;;0.90;;
10082;SDS011;5080;48.528;8.078;2023-05-07T11:41:18;1.08;;;1.08;;
10082;SDS011;5080;48.528;8.078;2023-05-07T11:43:58;1.10;;;1.00;;
10082;SDS011;5080;48.528;8.078;2023-05-07T11:46:26;1.02;;;1.00;;
10082;SDS011;5080;48.528;8.078;2023-05-07T11:48:54;1.05;;;1.00;;
10082;SDS011;5080;48.528;8.078;2023-05-07T11:51:21;1.13;;;1.10;;
10082;SDS011;5080;48.528;8.078;2023-05-07T11:53:51;1.00;;;1.00;;
10082;SDS011;5080;48.528;8.078;2023-05-07T11:56:18;0.70;;;0.70;;
10082;SDS011;5080;48.528;8.078;2023-05-07T11:58:46;1.00;;;1.00;;
10082;SDS011;5080;48.528;8.078;2023-05-07T12:01:13;0.82;;;0.82;;
10082;SDS011;5080;48.528;8.078;2023-05-07T12:03:42;0.90;;;0.90;;
10082;SDS011;5080;48.528;8.078;2023-05-07T12:06:10;0.70;;;0.70;;
10082;SDS011;5080;48.528;8.078;2023-05-07T12:08:40;1.00;;;1.00;;
10082;SDS011;5080;48.528;8.078;2023-05-07T12:11:08;1.17;;;0.95;;
10082;SDS011;5080;48.528;8.078;2023-05-07T12:13:36;0.90;;;0.90;;
10082;SDS011;5080;48.528;8.078;2023-05-07T12:16:03;0.90;;;0.90;;
10082;SDS011;5080;48.528;8.078;2023-05-07T12:18:32;1.00;;;0.90;;
10082;SDS011;5080;48.528;8.078;2023-05-07T12:21:00;1.10;;;0.75;;
10082;SDS011;5080;48.528;8.078;2023-05-07T12:23:27;0.75;;;0.75;;
10082;SDS011;5080;48.528;8.078;2023-05-07T12:25:56;0.77;;;0.77;;
10082;SDS011;5080;48.528;8.078;2023-05-07T12:28:23;0.70;;;0.70;;
10082;SDS011;5080;48.528;8.078;2023-05-07T12:30:50;0.90;;;0.90;;
10082;SDS011;5080;48.528;8.078;2023-05-07T12:33:18;0.77;;;0.77;;
10082;SDS011;5080;48.528;8.078;2023-05-07T12:35:50;1.27;;;0.80;;
10082;SDS011;5080;48.528;8.078;2023-05-07T12:38:17;0.75;;;0.75;;
10082;SDS011;5080;48.528;8.078;2023-05-07T12:40:44;0.90;;;0.90;;
10082;SDS011;5080;48.528;8.078;2023-05-07T12:43:17;1.00;;;1.00;;
10082;SDS011;5080;48.528;8.078;2023-05-07T12:45:44;1.00;;;1.00;;
10082;SDS011;5080;48.528;8.078;2023-05-07T12:48:12;1.00;;;1.00;;
10082;SDS011;5080;48.528;8.078;2023-05-07T12:50:39;1.35;;;1.10;;
10082;SDS011;5080;48.528;8.078;2023-05-07T12:53:07;0.90;;;0.90;;
10082;SDS011;5080;48.528;8.078;2023-05-07T12:55:42;0.90;;;0.90;;
10082;SDS011;5080;48.528;8.078;2023-05-07T12:58:14;0.90;;;0.90;;
10082;SDS011;5080;48.528;8.078;2023-05-07T13:00:47;0.93;;;0.93;;
10082;SDS011;5080;48.528;8.078;2023-05-07T13:03:20;0.85;;;0.85;;
10082;SDS011;5080;48.528;8.078;2023-05-07T13:05:48;1.00;;;0.90;;
10082;SDS011;5080;48.528;8.078;2023-05-07T13:08:23;0.98;;;0.98;;
10082;SDS011;5080;48.528;8.078;2023-05-07T13:10:53;0.80;;;0.80;;
10082;SDS011;5080;48.528;8.078;2023-05-07T13:13:21;0.90;;;0.90;;
10082;SDS011;5080;48.528;8.078;2023-05-07T13:15:48;1.10;;;1.00;;
10082;SDS011;5080;48.528;8.078;2023-05-07T13:18:15;0.85;;;0.85;;
10082;SDS011;5080;48.528;8.078;2023-05-07T13:20:42;1.02;;;1.02;;
10082;SDS011;5080;48.528;8.078;2023-05-07T13:23:08;1.17;;;1.08;;
10082;SDS011;5080;48.528;8.078;2023-05-07T13:25:35;1.13;;;1.05;;
10082;SDS011;5080;48.528;8.078;2023-05-07T13:28:02;1.20;;;1.20;;
10082;SDS011;5080;48.528;8.078;2023-05-07T13:30:31;1.00;;;1.00;;
10082;SDS011;5080;48.528;8.078;2023-05-07T13:32:57;0.90;;;0.90;;
10082;SDS011;5080;48.528;8.078;2023-05-07T13:35:24;0.90;;;0.90;;
10082;SDS011;5080;48.528;8.078;2023-05-07T13:37:51;2.25;;;1.10;;
10082;SDS011;5080;48.528;8.078;2023-05-07T13:40:19;1.00;;;1.00;;
10082;SDS011;5080;48.528;8.078;2023-05-07T13:42:46;1.38;;;1.38;;
10082;SDS011;5080;48.528;8.078;2023-05-07T13:45:13;0.90;;;0.90;;
10082;SDS011;5080;48.528;8.078;2023-05-07T13:47:41;1.35;;;1.10;;
10082;SDS011;5080;48.528;8.078;2023-05-07T13:50:09;1.23;;;1.23;;
10082;SDS011;5080;48.528;8.078;2023-05-07T13:52:38;1.00;;;1.00;;
10082;SDS011;5080;48.528;8.078;2023-05-07T13:55:06;1.10;;;1.10;;
10082;SDS011;5080;48.528;8.078;2023-05-07T13:57:33;0.93;;;0.93;;
10082;SDS011;5080;48.528;8.078;2023-05-07T14:00:00;1.00;;;1.00;;
10082;SDS011;5080;48.528;8.078;2023-05-07T14:02:27;1.02;;;1.02;;
10082;SDS011;5080;48.528;8.078;2023-05-07T14:04:55;1.00;;;1.00;;
10082;SDS011;5080;48.528;8.078;2023-05-07T14:07:22;0.90;;;0.90;;
10082;SDS011;5080;48.528;8.078;2023-05-07T14:09:48;0.90;;;0.90;;
10082;SDS011;5080;48.528;8.078;2023-05-07T14:12:16;1.00;;;1.00;;
10082;SDS011;5080;48.528;8.078;2023-05-07T14:14:42;1.00;;;1.00;;
10082;SDS011;5080;48.528;8.078;2023-05-07T14:17:10;0.90;;;0.90;;
10082;SDS011;5080;48.528;8.078;2023-05-07T14:19:37;0.70;;;0.70;;
10082;SDS011;5080;48.528;8.078;2023-05-07T14:22:05;0.80;;;0.80;;
10082;SDS011;5080;48.528;8.078;2023-05-07T14:24:32;0.80;;;0.80;;
10082;SDS011;5080;48.528;8.078;2023-05-07T14:26:59;0.90;;;0.90;;
10082;SDS011;5080;48.528;8.078;2023-05-07T14:29:26;0.80;;;0.80;;
10082;SDS011;5080;48.528;8.078;2023-05-07T14:31:53;0.80;;;0.80;;
10082;SDS011;5080;48.528;8.078;2023-05-07T14:34:20;0.70;;;0.70;;
10082;SDS011;5080;48.528;8.078;2023-05-07T14:36:47;0.93;;;0.93;;
10082;SDS011;5080;48.528;8.078;2023-05-07T14:39:15;0.77;;;0.77;;
10082;SDS011;5080;48.528;8.078;2023-05-07T14:41:42;1.40;;;1.40;;
10082;SDS011;5080;48.528;8.078;2023-05-07T14:44:09;1.52;;;1.42;;
10082;SDS011;5080;48.528;8.078;2023-05-07T14:46:36;1.30;;;1.20;;
10082;SDS011;5080;48.528;8.078;2023-05-07T14:49:02;1.10;;;1.10;;
10082;SDS011;5080;48.528;8.078;2023-05-07T14:51:30;1.10;;;1.10;;
10082;SDS011;5080;48.528;8.078;2023-05-07T14:53:58;1.30;;;1.20;;
10082;SDS011;5080;48.528;8.078;2023-05-07T14:56:26;0.90;;;0.90;;
10082;SDS011;5080;48.528;8.078;2023-05-07T14:58:53;1.70;;;1.60;;
10082;SDS011;5080;48.528;8.078;2023-05-07T15:01:20;1.00;;;1.00;;
10082;SDS011;5080;48.528;8.078;2023-05-07T15:03:47;1.20;;;1.10;;
10082;SDS011;5080;48.528;8.078;2023-05-07T15:06:14;0.98;;;0.98;;
10082;SDS011;5080;48.528;8.078;2023-05-07T15:08:41;0.80;;;0.80;;